createdAt,value
2019-05-22T00:01:48.565Z,25.20
2019-05-22T00:04:24.588Z,25.10
2019-05-22T00:06:56.630Z,25.27
2019-05-22T00:09:30.380Z,25.20
2019-05-22T00:11:59.764Z,25.63
2019-05-22T00:14:30.427Z,25.57
2019-05-22T00:17:01.081Z,25.70
2019-05-22T00:19:30.258Z,25.17
2019-05-22T00:22:05.629Z,26.17
2019-05-22T00:24:35.498Z,25.77
2019-05-22T00:27:05.504Z,26.10
2019-05-22T00:29:35.535Z,25.40
2019-05-22T00:32:05.159Z,25.27
2019-05-22T00:34:35.405Z,25.23
2019-05-22T00:37:06.048Z,24.50
2019-05-22T00:39:34.690Z,25.33
2019-05-22T00:42:03.331Z,28.70
2019-05-22T00:44:33.574Z,25.63
2019-05-22T00:47:02.207Z,25.77
2019-05-22T00:49:30.895Z,30.57
2019-05-22T00:52:19.174Z,25.43
2019-05-22T00:55:06.614Z,26.23
2019-05-22T00:57:42.060Z,26.03
2019-05-22T01:00:23.999Z,26.17
2019-05-22T01:02:54.367Z,25.80
2019-05-22T01:05:23.219Z,27.10
2019-05-22T01:07:54.268Z,27.63
2019-05-22T01:10:26.365Z,27.77
2019-05-22T01:13:00.602Z,26.77
2019-05-22T01:15:29.185Z,26.40
2019-05-22T01:17:57.803Z,26.23
2019-05-22T01:20:28.366Z,26.67
2019-05-22T01:22:58.429Z,26.33
2019-05-22T01:25:27.965Z,26.47
2019-05-22T01:27:57.938Z,25.60
2019-05-22T01:30:33.940Z,25.87
2019-05-22T01:33:04.905Z,25.60
2019-05-22T01:35:36.464Z,25.00
2019-05-22T01:38:06.414Z,26.53
2019-05-22T01:40:39.436Z,26.77
2019-05-22T01:43:11.580Z,27.07
2019-05-22T01:45:52.482Z,26.53
2019-05-22T01:48:23.952Z,26.07
2019-05-22T01:50:58.699Z,31.23
2019-05-22T01:53:37.164Z,26.93
2019-05-22T01:56:07.484Z,25.07
2019-05-22T01:58:37.139Z,24.60
2019-05-22T02:01:12.533Z,25.47
2019-05-22T02:03:42.886Z,24.60
2019-05-22T02:06:11.962Z,25.77
2019-05-22T02:08:43.893Z,25.97
2019-05-22T05:21:24.614Z,24.77
2019-05-22T05:32:03.522Z,25.70
2019-05-22T05:51:33.755Z,24.33
2019-05-22T05:54:06.125Z,24.20
2019-05-22T05:59:12.347Z,24.77
2019-05-22T06:04:35.768Z,23.37
2019-05-22T06:07:18.175Z,25.10
2019-05-22T06:09:50.988Z,24.27
2019-05-22T06:12:21.915Z,23.90
2019-05-22T06:14:51.776Z,24.17
2019-05-22T08:10:10.223Z,20.90
2019-05-22T08:12:41.838Z,19.03
2019-05-22T08:15:12.352Z,19.57
2019-05-22T08:17:42.493Z,18.57
2019-05-22T08:20:11.948Z,17.37
2019-05-22T08:22:41.614Z,17.90
2019-05-22T08:25:11.037Z,17.77
2019-05-22T08:27:53.608Z,20.37
2019-05-22T08:30:22.881Z,25.10
2019-05-22T08:32:54.167Z,19.00
2019-05-22T08:35:24.508Z,18.53
2019-05-22T08:37:53.275Z,17.90
2019-05-22T08:40:22.557Z,19.27
2019-05-22T08:42:51.678Z,19.10
2019-05-22T08:45:21.595Z,17.97
2019-05-22T08:47:50.927Z,18.10
2019-05-22T08:50:21.013Z,16.83
2019-05-22T08:52:50.355Z,17.13
2019-05-22T08:55:20.114Z,17.60
2019-05-22T08:57:49.609Z,16.20
2019-05-22T09:00:21.190Z,14.93
2019-05-22T09:02:50.821Z,14.07
2019-05-22T09:05:21.577Z,15.83
2019-05-22T09:07:51.448Z,14.83
2019-05-22T09:10:25.559Z,14.30
2019-05-22T09:12:52.269Z,15.30
2019-05-22T09:15:22.039Z,14.33
2019-05-22T09:17:51.356Z,14.17
2019-05-22T09:20:22.507Z,15.77
2019-05-22T09:22:52.102Z,14.77
2019-05-22T09:25:21.811Z,15.80
2019-05-22T09:27:51.833Z,14.77
2019-05-22T09:30:21.048Z,14.20
2019-05-22T09:32:51.757Z,13.10
2019-05-22T09:35:21.689Z,14.00
2019-05-22T09:37:51.128Z,15.43
2019-05-22T09:40:20.237Z,13.73
2019-05-22T09:42:49.498Z,14.23
2019-05-22T09:45:19.215Z,14.60
2019-05-22T09:47:48.286Z,14.70
2019-05-22T09:50:17.641Z,13.70
2019-05-22T09:52:56.996Z,13.20
2019-05-22T09:55:19.358Z,14.47
2019-05-22T09:57:48.529Z,13.70
2019-05-22T10:00:19.414Z,14.13
2019-05-22T10:02:49.206Z,15.23
2019-05-22T10:05:19.968Z,14.97
2019-05-22T10:08:00.707Z,13.53
2019-05-22T10:10:20.500Z,12.87
2019-05-22T10:12:50.522Z,13.67
2019-05-22T10:15:20.580Z,14.27
2019-05-22T10:17:50.659Z,14.60
2019-05-22T10:20:21.755Z,13.90
2019-05-22T10:22:51.095Z,13.37
2019-05-22T10:25:20.210Z,12.13
2019-05-22T10:27:49.564Z,13.03
2019-05-22T10:30:22.602Z,12.67
2019-05-22T10:32:52.006Z,13.97
2019-05-22T10:35:25.525Z,15.13
2019-05-22T10:37:55.988Z,14.30
2019-05-22T10:40:25.288Z,15.10
2019-05-22T10:42:54.502Z,14.80
2019-05-22T10:45:24.385Z,14.27
2019-05-22T10:47:53.562Z,14.20
2019-05-22T10:50:22.872Z,15.70
2019-05-22T10:52:54.589Z,15.57
2019-05-22T10:55:23.837Z,13.63
2019-05-22T10:57:53.064Z,14.30
2019-05-22T11:00:23.374Z,15.10
2019-05-22T11:02:52.704Z,14.87
2019-05-22T11:05:22.477Z,14.80
2019-05-22T11:07:52.486Z,13.20
2019-05-22T11:10:24.279Z,13.87
2019-05-22T11:12:53.871Z,15.03
2019-05-22T11:15:24.399Z,13.90
2019-05-22T11:17:54.421Z,15.30
2019-05-22T11:20:23.565Z,15.47
2019-05-22T11:22:53.749Z,15.13
2019-05-22T11:25:23.415Z,15.97
2019-05-22T11:27:54.618Z,16.17
2019-05-22T11:30:24.237Z,17.90
2019-05-22T11:32:54.661Z,16.73
2019-05-22T11:35:24.465Z,17.43
2019-05-22T11:37:54.191Z,16.70
2019-05-22T11:40:25.340Z,17.23
2019-05-22T11:42:54.843Z,15.27
2019-05-22T11:45:24.981Z,16.33
2019-05-22T11:47:56.219Z,14.13
2019-05-22T11:50:27.850Z,13.70
2019-05-22T11:52:57.085Z,14.67
2019-05-22T11:55:42.718Z,14.93
2019-05-22T11:57:57.520Z,14.50
2019-05-22T12:00:26.670Z,15.80
2019-05-22T12:02:56.306Z,15.40
2019-05-22T12:05:28.055Z,15.73
2019-05-22T12:07:58.360Z,13.73
2019-05-22T12:10:29.178Z,13.17
2019-05-22T12:12:59.059Z,13.93
2019-05-22T12:15:30.924Z,14.53
2019-05-22T12:18:00.547Z,15.13
2019-05-22T12:20:30.713Z,13.53
2019-05-22T12:22:59.847Z,15.55
2019-05-22T12:25:29.232Z,13.87
2019-05-22T12:27:58.437Z,12.53
2019-05-22T12:30:28.094Z,12.33
2019-05-22T12:32:57.767Z,11.57
2019-05-22T12:35:27.698Z,10.90
2019-05-22T12:37:58.341Z,10.93
2019-05-22T12:40:32.054Z,11.70
2019-05-22T12:43:01.901Z,10.50
2019-05-22T12:45:33.374Z,11.27
2019-05-22T12:48:03.947Z,11.87
2019-05-22T12:50:33.892Z,11.40
2019-05-22T12:53:06.306Z,12.90
2019-05-22T12:55:35.977Z,13.27
2019-05-22T12:58:06.348Z,12.07
2019-05-22T13:00:36.464Z,13.07
2019-05-22T13:03:07.452Z,12.83
2019-05-22T13:05:39.275Z,13.33
2019-05-22T13:08:09.381Z,11.77
2019-05-22T13:10:39.498Z,11.20
2019-05-22T13:13:08.791Z,9.73
2019-05-22T13:15:39.838Z,11.73
2019-05-22T13:18:10.866Z,10.47
2019-05-22T13:20:44.474Z,10.20
2019-05-22T13:23:15.507Z,10.20
2019-05-22T13:25:46.047Z,14.00
2019-05-22T13:28:18.903Z,11.60
2019-05-22T13:30:52.731Z,12.70
2019-05-22T13:33:25.905Z,12.13
2019-05-22T13:35:56.914Z,13.03
2019-05-22T13:38:26.873Z,12.40
2019-05-22T13:40:57.084Z,10.80
2019-05-22T13:43:27.391Z,11.20
2019-05-22T13:45:56.758Z,11.97
2019-05-22T13:48:27.332Z,10.70
2019-05-22T13:50:57.886Z,10.50
2019-05-22T13:53:27.645Z,9.83
2019-05-22T13:55:58.100Z,8.93
2019-05-22T13:58:28.434Z,9.40
2019-05-22T14:00:57.906Z,10.37
2019-05-22T14:03:27.916Z,10.27
2019-05-22T14:05:57.833Z,9.33
2019-05-22T14:08:26.948Z,9.47
2019-05-22T14:10:56.098Z,8.87
2019-05-22T14:13:26.989Z,8.13
2019-05-22T14:15:57.455Z,6.73
2019-05-22T14:18:27.203Z,7.50
2019-05-22T14:20:56.448Z,7.77
2019-05-22T14:23:25.979Z,7.90
2019-05-22T14:25:55.454Z,7.37
2019-05-22T14:28:27.267Z,7.30
2019-05-22T14:30:56.402Z,7.50
2019-05-22T14:33:28.025Z,8.05
2019-05-22T14:35:57.146Z,7.30
2019-05-22T14:38:27.092Z,7.63
2019-05-22T14:40:56.863Z,7.90
2019-05-22T14:43:26.093Z,6.63
2019-05-22T14:45:55.358Z,7.43
2019-05-22T14:48:24.917Z,7.97
2019-05-22T14:50:54.267Z,6.97
2019-05-22T14:53:23.612Z,7.73
2019-05-22T14:55:52.788Z,7.23
2019-05-22T14:58:22.697Z,6.63
2019-05-22T15:00:53.173Z,5.87
2019-05-22T15:03:22.995Z,6.53
2019-05-22T15:05:52.786Z,7.00
2019-05-22T15:08:21.852Z,7.57
2019-05-22T15:10:51.197Z,6.57
2019-05-22T15:13:20.601Z,6.47
2019-05-22T15:15:49.742Z,5.73
2019-05-22T15:18:18.896Z,4.90
2019-05-22T15:20:56.460Z,6.10
2019-05-22T15:23:26.782Z,6.10
2019-05-22T15:25:57.803Z,6.03
2019-05-22T15:28:27.272Z,4.87
2019-05-22T15:30:56.608Z,5.87
2019-05-22T15:33:25.777Z,5.90
2019-05-22T15:35:55.140Z,5.30
2019-05-22T15:38:24.581Z,6.03
2019-05-22T15:40:55.522Z,6.27
2019-05-22T15:43:27.122Z,6.65
2019-05-22T15:45:58.543Z,6.00
2019-05-22T15:48:31.236Z,7.03
2019-05-22T15:51:06.674Z,8.80
2019-05-22T15:53:38.174Z,10.20
2019-05-22T15:56:09.348Z,7.90
2019-05-22T15:58:42.631Z,6.83
2019-05-22T16:01:15.332Z,7.17
2019-05-22T16:03:47.183Z,6.63
2019-05-22T16:06:18.270Z,6.50
2019-05-22T16:08:48.678Z,6.93
2019-05-22T16:11:18.686Z,6.87
2019-05-22T16:13:48.879Z,7.97
2019-05-22T16:16:21.976Z,8.27
2019-05-22T16:18:53.107Z,7.60
2019-05-22T16:21:22.569Z,7.93
2019-05-22T16:23:52.974Z,8.17
2019-05-22T16:26:23.012Z,7.63
2019-05-22T16:28:52.443Z,6.57
2019-05-22T16:31:22.566Z,7.77
2019-05-22T16:33:54.219Z,7.40
2019-05-22T16:36:24.140Z,7.70
2019-05-22T16:38:54.752Z,8.03
2019-05-22T16:41:25.670Z,7.60
2019-05-22T16:43:55.818Z,7.70
2019-05-22T16:46:25.696Z,7.63
2019-05-22T16:48:55.692Z,7.57
2019-05-22T16:51:27.409Z,9.10
2019-05-22T16:54:01.415Z,6.97
2019-05-22T16:56:30.872Z,8.95
2019-05-22T16:59:00.538Z,8.80
2019-05-22T17:01:30.300Z,7.53
2019-05-22T17:04:02.676Z,7.57
2019-05-22T17:06:32.356Z,7.27
2019-05-22T17:09:03.969Z,8.87
2019-05-22T17:11:33.829Z,7.60
2019-05-22T17:14:06.684Z,7.53
2019-05-22T17:16:39.594Z,7.53
2019-05-22T17:19:25.768Z,9.87
2019-05-22T17:21:41.018Z,8.27
2019-05-22T17:24:11.514Z,8.67
2019-05-22T17:26:40.755Z,7.47
2019-05-22T17:29:11.972Z,7.63
2019-05-22T17:35:12.490Z,7.33
2019-05-22T17:37:42.493Z,7.30
2019-05-22T17:40:14.115Z,10.80
2019-05-22T17:42:44.716Z,7.70
2019-05-22T17:45:16.563Z,6.87
2019-05-22T17:47:46.389Z,7.67
2019-05-22T17:50:26.841Z,6.93
2019-05-22T17:52:49.965Z,7.67
2019-05-22T17:55:21.023Z,7.60
2019-05-22T17:57:50.504Z,6.97
2019-05-22T18:00:41.841Z,7.27
2019-05-22T18:03:10.937Z,6.27
2019-05-22T18:05:41.102Z,6.53
2019-05-22T18:08:10.642Z,6.13
2019-05-22T18:10:41.573Z,5.93
2019-05-22T18:13:10.794Z,6.37
2019-05-22T18:15:40.400Z,6.40
2019-05-22T18:18:10.441Z,7.67
2019-05-22T18:20:43.649Z,8.87
2019-05-22T18:23:11.026Z,6.37
2019-05-22T18:25:40.147Z,6.40
2019-05-22T18:28:11.772Z,6.17
2019-05-22T18:30:42.831Z,5.87
2019-05-22T18:33:13.194Z,6.23
2019-05-22T18:35:42.268Z,6.10
2019-05-22T18:38:11.458Z,6.00
2019-05-22T18:40:40.611Z,5.57
2019-05-22T18:43:11.036Z,6.47
2019-05-22T18:45:40.526Z,6.17
2019-05-22T18:48:10.426Z,5.90
2019-05-22T18:50:40.117Z,5.57
2019-05-22T18:53:09.665Z,5.83
2019-05-22T18:55:38.756Z,5.37
2019-05-22T18:58:07.884Z,5.67
2019-05-22T19:00:37.729Z,6.20
2019-05-22T19:03:06.916Z,6.10
2019-05-22T19:05:37.109Z,6.40
2019-05-22T19:08:06.275Z,6.47
2019-05-22T19:10:35.853Z,6.83
2019-05-22T19:13:05.035Z,5.97
2019-05-22T19:15:34.144Z,6.03
2019-05-22T19:18:03.725Z,6.37
2019-05-22T19:20:33.055Z,6.83
2019-05-22T19:23:02.207Z,5.30
2019-05-22T19:25:31.382Z,6.67
2019-05-22T19:28:00.386Z,5.13
2019-05-22T19:30:30.044Z,4.70
2019-05-22T19:32:59.240Z,5.00
2019-05-22T19:35:28.308Z,4.37
2019-05-22T19:37:58.171Z,4.83
2019-05-22T19:40:27.635Z,4.53
2019-05-22T19:42:57.368Z,4.60
2019-05-22T19:45:30.614Z,4.70
2019-05-22T19:47:58.577Z,4.20
2019-05-22T19:50:29.104Z,3.93
2019-05-22T19:53:15.722Z,4.33
2019-05-22T19:55:31.275Z,4.27
2019-05-22T19:58:01.424Z,4.07
2019-05-22T20:00:31.502Z,4.07
2019-05-22T20:03:00.965Z,3.93
2019-05-22T20:05:31.479Z,4.22
2019-05-22T20:08:01.183Z,3.53
2019-05-22T20:10:30.261Z,3.98
